sensor_id;sensor_type;location;lat;lon;timestamp;temperature;humidity
7000;DHT22;3540;53.242;10.408;2023-08-24T00:00:40;18.60;99.90
7000;DHT22;3540;53.242;10.408;2023-08-24T00:03:06;18.60;99.90
7000;DHT22;3540;53.242;10.408;2023-08-24T00:05:35;18.60;99.90
7000;DHT22;3540;53.242;10.408;2023-08-24T00:08:04;18.60;99.90
7000;DHT22;3540;53.242;10.408;2023-08-24T00:10:30;18.70;99.90
7000;DHT22;3540;53.242;10.408;2023-08-24T00:12:56;18.70;99.90
7000;DHT22;3540;53.242;10.408;2023-08-24T00:15:22;18.60;99.90
7000;DHT22;3540;53.242;10.408;2023-08-24T00:17:47;18.60;99.90
7000;DHT22;3540;53.242;10.408;2023-08-24T00:20:13;18.50;99.90
7000;DHT22;3540;53.242;10.408;2023-08-24T00:22:39;18.60;99.90
7000;DHT22;3540;53.242;10.408;2023-08-24T00:25:06;18.50;99.90
7000;DHT22;3540;53.242;10.408;2023-08-24T00:27:33;18.50;99.90
7000;DHT22;3540;53.242;10.408;2023-08-24T00:29:59;18.50;99.90
7000;DHT22;3540;53.242;10.408;2023-08-24T00:32:24;18.50;99.90
7000;DHT22;3540;53.242;10.408;2023-08-24T00:34:50;18.50;99.90
7000;DHT22;3540;53.242;10.408;2023-08-24T00:37:16;18.50;99.90
7000;DHT22;3540;53.242;10.408;2023-08-24T00:39:41;18.50;99.90
7000;DHT22;3540;53.242;10.408;2023-08-24T00:42:07;18.40;99.90
7000;DHT22;3540;53.242;10.408;2023-08-24T00:44:34;18.40;99.90
7000;DHT22;3540;53.242;10.408;2023-08-24T00:46:59;18.30;99.90
7000;DHT22;3540;53.242;10.408;2023-08-24T00:49:26;18.30;99.90
7000;DHT22;3540;53.242;10.408;2023-08-24T00:51:51;18.30;99.90
7000;DHT22;3540;53.242;10.408;2023-08-24T00:54:17;18.30;99.90
7000;DHT22;3540;53.242;10.408;2023-08-24T00:56:44;18.30;99.90
7000;DHT22;3540;53.242;10.408;2023-08-24T00:59:10;18.30;99.90
7000;DHT22;3540;53.242;10.408;2023-08-24T01:01:35;18.30;99.90
7000;DHT22;3540;53.242;10.408;2023-08-24T01:04:01;18.20;99.90
7000;DHT22;3540;53.242;10.408;2023-08-24T01:06:28;18.20;99.90
7000;DHT22;3540;53.242;10.408;2023-08-24T01:08:54;18.20;99.90
7000;DHT22;3540;53.242;10.408;2023-08-24T01:14:33;18.10;99.90
7000;DHT22;3540;53.242;10.408;2023-08-24T01:17:03;18.20;99.90
7000;DHT22;3540;53.242;10.408;2023-08-24T01:19:44;18.20;99.90
7000;DHT22;3540;53.242;10.408;2023-08-24T01:23:18;18.20;99.90
7000;DHT22;3540;53.242;10.408;2023-08-24T01:25:32;18.20;99.90
7000;DHT22;3540;53.242;10.408;2023-08-24T01:28:01;18.20;99.90
7000;DHT22;3540;53.242;10.408;2023-08-24T01:30:28;18.10;99.90
7000;DHT22;3540;53.242;10.408;2023-08-24T01:32:54;18.10;99.90
7000;DHT22;3540;53.242;10.408;2023-08-24T01:35:19;18.10;99.90
7000;DHT22;3540;53.242;10.408;2023-08-24T01:37:45;18.10;99.90
7000;DHT22;3540;53.242;10.408;2023-08-24T01:42:54;17.90;99.90
7000;DHT22;3540;53.242;10.408;2023-08-24T01:45:24;17.80;99.90
7000;DHT22;3540;53.242;10.408;2023-08-24T01:47:52;17.70;99.90
7000;DHT22;3540;53.242;10.408;2023-08-24T01:50:19;17.70;99.90
7000;DHT22;3540;53.242;10.408;2023-08-24T01:52:45;17.60;99.90
7000;DHT22;3540;53.242;10.408;2023-08-24T01:55:11;17.60;99.90
7000;DHT22;3540;53.242;10.408;2023-08-24T01:57:37;17.50;99.90
7000;DHT22;3540;53.242;10.408;2023-08-24T02:00:04;17.40;99.90
7000;DHT22;3540;53.242;10.408;2023-08-24T02:02:34;17.40;99.90
7000;DHT22;3540;53.242;10.408;2023-08-24T02:05:00;17.40;99.90
7000;DHT22;3540;53.242;10.408;2023-08-24T02:07:25;17.40;99.90
7000;DHT22;3540;53.242;10.408;2023-08-24T02:09:51;17.30;99.90
7000;DHT22;3540;53.242;10.408;2023-08-24T02:12:16;17.30;99.90
7000;DHT22;3540;53.242;10.408;2023-08-24T02:14:42;17.30;99.90
7000;DHT22;3540;53.242;10.408;2023-08-24T02:17:08;17.30;99.90
7000;DHT22;3540;53.242;10.408;2023-08-24T02:19:34;17.30;99.90
7000;DHT22;3540;53.242;10.408;2023-08-24T02:21:59;17.30;99.90
7000;DHT22;3540;53.242;10.408;2023-08-24T02:24:25;17.30;99.90
7000;DHT22;3540;53.242;10.408;2023-08-24T02:26:51;17.20;99.90
7000;DHT22;3540;53.242;10.408;2023-08-24T02:29:16;17.20;99.90
7000;DHT22;3540;53.242;10.408;2023-08-24T02:31:42;17.20;99.90
7000;DHT22;3540;53.242;10.408;2023-08-24T02:34:08;17.10;99.90
7000;DHT22;3540;53.242;10.408;2023-08-24T02:36:33;17.10;99.90
7000;DHT22;3540;53.242;10.408;2023-08-24T02:38:59;17.00;99.90
7000;DHT22;3540;53.242;10.408;2023-08-24T02:41:26;17.00;99.90
7000;DHT22;3540;53.242;10.408;2023-08-24T02:43:52;17.00;99.90
7000;DHT22;3540;53.242;10.408;2023-08-24T02:46:20;16.90;99.90
7000;DHT22;3540;53.242;10.408;2023-08-24T02:48:46;16.90;99.90
7000;DHT22;3540;53.242;10.408;2023-08-24T02:51:11;16.90;99.90
7000;DHT22;3540;53.242;10.408;2023-08-24T02:53:37;16.90;99.90
7000;DHT22;3540;53.242;10.408;2023-08-24T02:56:03;16.80;99.90
7000;DHT22;3540;53.242;10.408;2023-08-24T02:58:29;16.80;99.90
7000;DHT22;3540;53.242;10.408;2023-08-24T03:00:55;16.70;99.90
7000;DHT22;3540;53.242;10.408;2023-08-24T03:03:21;16.60;99.90
7000;DHT22;3540;53.242;10.408;2023-08-24T03:05:54;16.60;99.90
7000;DHT22;3540;53.242;10.408;2023-08-24T03:08:20;16.60;99.90
7000;DHT22;3540;53.242;10.408;2023-08-24T03:10:46;16.60;99.90
7000;DHT22;3540;53.242;10.408;2023-08-24T03:13:11;16.50;99.90
7000;DHT22;3540;53.242;10.408;2023-08-24T03:15:37;16.50;99.90
7000;DHT22;3540;53.242;10.408;2023-08-24T03:18:03;16.50;99.90
7000;DHT22;3540;53.242;10.408;2023-08-24T03:20:28;16.40;99.90
7000;DHT22;3540;53.242;10.408;2023-08-24T03:22:54;16.40;99.90
7000;DHT22;3540;53.242;10.408;2023-08-24T03:25:20;16.40;99.90
7000;DHT22;3540;53.242;10.408;2023-08-24T03:27:46;16.40;99.90
7000;DHT22;3540;53.242;10.408;2023-08-24T03:30:13;16.40;99.90
7000;DHT22;3540;53.242;10.408;2023-08-24T03:32:40;16.40;99.90
7000;DHT22;3540;53.242;10.408;2023-08-24T03:35:07;16.40;99.90
7000;DHT22;3540;53.242;10.408;2023-08-24T03:37:33;16.40;99.90
7000;DHT22;3540;53.242;10.408;2023-08-24T03:39:59;16.30;99.90
7000;DHT22;3540;53.242;10.408;2023-08-24T03:42:24;16.30;99.90
7000;DHT22;3540;53.242;10.408;2023-08-24T03:44:50;16.10;99.90
7000;DHT22;3540;53.242;10.408;2023-08-24T03:47:16;16.00;99.90
7000;DHT22;3540;53.242;10.408;2023-08-24T03:49:43;16.00;99.90
7000;DHT22;3540;53.242;10.408;2023-08-24T03:52:08;15.90;99.90
7000;DHT22;3540;53.242;10.408;2023-08-24T03:54:34;16.00;99.90
7000;DHT22;3540;53.242;10.408;2023-08-24T03:57:00;15.90;99.90
7000;DHT22;3540;53.242;10.408;2023-08-24T03:59:26;15.90;99.90
7000;DHT22;3540;53.242;10.408;2023-08-24T04:01:52;15.90;99.90
7000;DHT22;3540;53.242;10.408;2023-08-24T04:04:18;15.90;99.90
7000;DHT22;3540;53.242;10.408;2023-08-24T04:06:43;15.80;99.90
7000;DHT22;3540;53.242;10.408;2023-08-24T04:09:09;15.80;99.90
7000;DHT22;3540;53.242;10.408;2023-08-24T04:11:34;15.80;99.90
7000;DHT22;3540;53.242;10.408;2023-08-24T04:14:00;15.80;99.90
7000;DHT22;3540;53.242;10.408;2023-08-24T04:16:26;15.80;99.90
7000;DHT22;3540;53.242;10.408;2023-08-24T04:18:52;15.80;99.90
7000;DHT22;3540;53.242;10.408;2023-08-24T04:21:18;15.80;99.90
7000;DHT22;3540;53.242;10.408;2023-08-24T04:23:43;15.80;99.90
7000;DHT22;3540;53.242;10.408;2023-08-24T04:26:13;15.80;99.90
7000;DHT22;3540;53.242;10.408;2023-08-24T04:28:39;15.90;99.90
7000;DHT22;3540;53.242;10.408;2023-08-24T04:31:05;15.90;99.90
7000;DHT22;3540;53.242;10.408;2023-08-24T04:33:31;15.90;99.90
7000;DHT22;3540;53.242;10.408;2023-08-24T04:35:57;16.00;99.90
7000;DHT22;3540;53.242;10.408;2023-08-24T04:38:23;16.00;99.90
7000;DHT22;3540;53.242;10.408;2023-08-24T04:43:15;16.10;99.90
7000;DHT22;3540;53.242;10.408;2023-08-24T04:45:41;16.10;99.90
7000;DHT22;3540;53.242;10.408;2023-08-24T04:48:06;16.20;99.90
7000;DHT22;3540;53.242;10.408;2023-08-24T04:50:32;16.20;99.90
7000;DHT22;3540;53.242;10.408;2023-08-24T04:52:58;16.30;99.90
7000;DHT22;3540;53.242;10.408;2023-08-24T04:55:23;16.30;99.90
7000;DHT22;3540;53.242;10.408;2023-08-24T04:57:49;16.40;99.90
7000;DHT22;3540;53.242;10.408;2023-08-24T05:00:15;16.40;99.90
7000;DHT22;3540;53.242;10.408;2023-08-24T05:02:42;16.40;99.90
7000;DHT22;3540;53.242;10.408;2023-08-24T05:05:08;16.50;99.90
7000;DHT22;3540;53.242;10.408;2023-08-24T05:07:40;16.50;99.90
7000;DHT22;3540;53.242;10.408;2023-08-24T05:10:07;16.50;99.90
7000;DHT22;3540;53.242;10.408;2023-08-24T05:12:33;16.50;99.90
7000;DHT22;3540;53.242;10.408;2023-08-24T05:15:01;16.50;99.90
7000;DHT22;3540;53.242;10.408;2023-08-24T05:17:28;16.60;99.90
7000;DHT22;3540;53.242;10.408;2023-08-24T05:19:54;16.60;99.90
7000;DHT22;3540;53.242;10.408;2023-08-24T05:22:20;16.70;99.90
7000;DHT22;3540;53.242;10.408;2023-08-24T05:24:46;16.80;99.90
7000;DHT22;3540;53.242;10.408;2023-08-24T05:27:12;16.80;99.90
7000;DHT22;3540;53.242;10.408;2023-08-24T05:29:37;16.90;99.90
7000;DHT22;3540;53.242;10.408;2023-08-24T05:32:03;16.90;99.90
7000;DHT22;3540;53.242;10.408;2023-08-24T05:34:29;17.00;99.90
7000;DHT22;3540;53.242;10.408;2023-08-24T05:36:54;17.10;99.90
7000;DHT22;3540;53.242;10.408;2023-08-24T05:39:20;17.10;99.90
7000;DHT22;3540;53.242;10.408;2023-08-24T05:41:46;17.20;99.90
7000;DHT22;3540;53.242;10.408;2023-08-24T05:44:11;17.20;99.90
7000;DHT22;3540;53.242;10.408;2023-08-24T05:46:37;17.30;99.90
7000;DHT22;3540;53.242;10.408;2023-08-24T05:49:02;17.20;99.90
7000;DHT22;3540;53.242;10.408;2023-08-24T05:51:28;17.20;99.90
7000;DHT22;3540;53.242;10.408;2023-08-24T05:53:54;17.20;99.90
7000;DHT22;3540;53.242;10.408;2023-08-24T05:56:23;17.20;99.90
7000;DHT22;3540;53.242;10.408;2023-08-24T05:58:49;17.10;99.90
7000;DHT22;3540;53.242;10.408;2023-08-24T06:01:15;17.00;99.90
7000;DHT22;3540;53.242;10.408;2023-08-24T06:03:40;17.00;99.90
7000;DHT22;3540;53.242;10.408;2023-08-24T06:06:06;16.90;99.90
7000;DHT22;3540;53.242;10.408;2023-08-24T06:08:34;16.90;99.90
7000;DHT22;3540;53.242;10.408;2023-08-24T06:11:00;16.80;99.90
7000;DHT22;3540;53.242;10.408;2023-08-24T06:13:26;16.80;99.90
7000;DHT22;3540;53.242;10.408;2023-08-24T06:15:52;16.80;99.90
7000;DHT22;3540;53.242;10.408;2023-08-24T06:18:17;16.90;99.90
7000;DHT22;3540;53.242;10.408;2023-08-24T06:20:43;17.00;99.90
7000;DHT22;3540;53.242;10.408;2023-08-24T06:23:09;17.10;99.90
7000;DHT22;3540;53.242;10.408;2023-08-24T06:25:35;17.10;99.90
7000;DHT22;3540;53.242;10.408;2023-08-24T06:28:01;17.30;99.90
7000;DHT22;3540;53.242;10.408;2023-08-24T06:30:29;17.40;99.90
7000;DHT22;3540;53.242;10.408;2023-08-24T06:32:58;17.50;99.90
7000;DHT22;3540;53.242;10.408;2023-08-24T06:35:24;17.60;99.90
7000;DHT22;3540;53.242;10.408;2023-08-24T06:37:50;17.80;99.90
7000;DHT22;3540;53.242;10.408;2023-08-24T06:40:15;17.90;99.90
7000;DHT22;3540;53.242;10.408;2023-08-24T06:42:42;18.10;99.90
7000;DHT22;3540;53.242;10.408;2023-08-24T06:45:09;18.20;99.90
7000;DHT22;3540;53.242;10.408;2023-08-24T06:47:36;18.30;99.90
7000;DHT22;3540;53.242;10.408;2023-08-24T06:50:02;18.30;99.90
7000;DHT22;3540;53.242;10.408;2023-08-24T06:52:27;18.40;99.90
7000;DHT22;3540;53.242;10.408;2023-08-24T06:54:53;18.30;99.90
7000;DHT22;3540;53.242;10.408;2023-08-24T06:57:21;18.40;99.90
7000;DHT22;3540;53.242;10.408;2023-08-24T06:59:47;18.50;99.90
7000;DHT22;3540;53.242;10.408;2023-08-24T07:02:13;18.70;99.90
7000;DHT22;3540;53.242;10.408;2023-08-24T07:04:39;18.80;99.90
7000;DHT22;3540;53.242;10.408;2023-08-24T07:07:06;18.90;99.90
7000;DHT22;3540;53.242;10.408;2023-08-24T07:09:32;19.00;99.90
7000;DHT22;3540;53.242;10.408;2023-08-24T07:11:58;19.00;99.90
7000;DHT22;3540;53.242;10.408;2023-08-24T07:14:23;19.00;99.90
7000;DHT22;3540;53.242;10.408;2023-08-24T07:16:49;19.10;99.90
7000;DHT22;3540;53.242;10.408;2023-08-24T07:19:14;19.20;99.90
7000;DHT22;3540;53.242;10.408;2023-08-24T07:21:40;19.30;99.90
7000;DHT22;3540;53.242;10.408;2023-08-24T07:24:06;19.30;99.90
7000;DHT22;3540;53.242;10.408;2023-08-24T07:26:31;19.30;99.90
7000;DHT22;3540;53.242;10.408;2023-08-24T07:28:57;19.30;99.90
7000;DHT22;3540;53.242;10.408;2023-08-24T07:31:23;19.40;99.90
7000;DHT22;3540;53.242;10.408;2023-08-24T07:33:49;19.40;99.90
7000;DHT22;3540;53.242;10.408;2023-08-24T07:36:14;19.50;99.90
7000;DHT22;3540;53.242;10.408;2023-08-24T07:38:40;19.40;99.90
7000;DHT22;3540;53.242;10.408;2023-08-24T07:41:06;19.40;99.90
7000;DHT22;3540;53.242;10.408;2023-08-24T07:43:32;19.60;99.90
7000;DHT22;3540;53.242;10.408;2023-08-24T07:45:58;19.50;99.90
7000;DHT22;3540;53.242;10.408;2023-08-24T07:48:25;19.50;99.90
7000;DHT22;3540;53.242;10.408;2023-08-24T07:50:50;19.70;99.90
7000;DHT22;3540;53.242;10.408;2023-08-24T07:53:16;19.80;99.90
7000;DHT22;3540;53.242;10.408;2023-08-24T07:55:42;20.10;99.90
7000;DHT22;3540;53.242;10.408;2023-08-24T07:58:08;20.20;99.90
7000;DHT22;3540;53.242;10.408;2023-08-24T08:00:34;20.40;99.90
7000;DHT22;3540;53.242;10.408;2023-08-24T08:03:00;20.60;99.90
7000;DHT22;3540;53.242;10.408;2023-08-24T08:05:25;20.70;99.90
7000;DHT22;3540;53.242;10.408;2023-08-24T08:07:52;20.70;99.90
7000;DHT22;3540;53.242;10.408;2023-08-24T08:10:18;20.90;99.90
7000;DHT22;3540;53.242;10.408;2023-08-24T08:12:45;20.80;99.90
7000;DHT22;3540;53.242;10.408;2023-08-24T08:15:11;20.60;99.90
7000;DHT22;3540;53.242;10.408;2023-08-24T08:17:37;20.50;99.90
7000;DHT22;3540;53.242;10.408;2023-08-24T08:20:03;20.20;99.90
7000;DHT22;3540;53.242;10.408;2023-08-24T08:22:29;20.50;99.90
7000;DHT22;3540;53.242;10.408;2023-08-24T08:24:54;20.70;99.90
7000;DHT22;3540;53.242;10.408;2023-08-24T08:27:22;21.00;99.90
7000;DHT22;3540;53.242;10.408;2023-08-24T08:29:48;21.10;99.90
7000;DHT22;3540;53.242;10.408;2023-08-24T08:32:14;21.20;99.90
7000;DHT22;3540;53.242;10.408;2023-08-24T08:34:39;21.40;99.90
7000;DHT22;3540;53.242;10.408;2023-08-24T08:37:05;21.60;99.90
7000;DHT22;3540;53.242;10.408;2023-08-24T08:39:32;21.70;99.90
7000;DHT22;3540;53.242;10.408;2023-08-24T08:41:58;21.90;99.90
7000;DHT22;3540;53.242;10.408;2023-08-24T08:44:32;22.00;99.90
7000;DHT22;3540;53.242;10.408;2023-08-24T08:46:58;22.00;99.90
7000;DHT22;3540;53.242;10.408;2023-08-24T08:49:24;22.10;99.90
7000;DHT22;3540;53.242;10.408;2023-08-24T08:51:50;22.20;99.90
7000;DHT22;3540;53.242;10.408;2023-08-24T08:54:19;22.20;99.90
7000;DHT22;3540;53.242;10.408;2023-08-24T08:56:46;22.20;99.90
7000;DHT22;3540;53.242;10.408;2023-08-24T08:59:13;22.30;99.90
7000;DHT22;3540;53.242;10.408;2023-08-24T09:01:40;22.40;99.90
7000;DHT22;3540;53.242;10.408;2023-08-24T09:04:06;22.40;99.90
7000;DHT22;3540;53.242;10.408;2023-08-24T09:06:33;22.50;99.90
7000;DHT22;3540;53.242;10.408;2023-08-24T09:09:00;22.30;99.90
7000;DHT22;3540;53.242;10.408;2023-08-24T09:11:26;22.40;99.90
7000;DHT22;3540;53.242;10.408;2023-08-24T09:13:51;22.60;99.90
7000;DHT22;3540;53.242;10.408;2023-08-24T09:16:17;22.50;99.90
7000;DHT22;3540;53.242;10.408;2023-08-24T09:18:45;22.70;99.90
7000;DHT22;3540;53.242;10.408;2023-08-24T09:21:15;22.80;99.90
7000;DHT22;3540;53.242;10.408;2023-08-24T09:23:45;22.80;99.90
7000;DHT22;3540;53.242;10.408;2023-08-24T09:26:11;23.00;99.90
7000;DHT22;3540;53.242;10.408;2023-08-24T09:28:37;23.20;99.90
7000;DHT22;3540;53.242;10.408;2023-08-24T09:31:05;23.30;99.90
7000;DHT22;3540;53.242;10.408;2023-08-24T09:33:30;23.40;99.90
7000;DHT22;3540;53.242;10.408;2023-08-24T09:35:56;23.50;99.90
7000;DHT22;3540;53.242;10.408;2023-08-24T09:38:27;23.60;99.90
7000;DHT22;3540;53.242;10.408;2023-08-24T09:40:55;23.50;99.90
7000;DHT22;3540;53.242;10.408;2023-08-24T09:43:21;23.40;99.90
7000;DHT22;3540;53.242;10.408;2023-08-24T09:45:55;23.60;99.90
7000;DHT22;3540;53.242;10.408;2023-08-24T09:48:21;23.70;99.90
7000;DHT22;3540;53.242;10.408;2023-08-24T09:50:49;23.60;99.90
7000;DHT22;3540;53.242;10.408;2023-08-24T09:53:22;23.70;99.90
7000;DHT22;3540;53.242;10.408;2023-08-24T09:58:17;23.80;99.90
7000;DHT22;3540;53.242;10.408;2023-08-24T10:00:45;23.70;99.90
7000;DHT22;3540;53.242;10.408;2023-08-24T10:03:15;23.90;99.90
7000;DHT22;3540;53.242;10.408;2023-08-24T10:05:42;23.30;99.90
7000;DHT22;3540;53.242;10.408;2023-08-24T10:08:09;23.70;99.90
7000;DHT22;3540;53.242;10.408;2023-08-24T10:10:37;24.00;99.90
7000;DHT22;3540;53.242;10.408;2023-08-24T10:13:14;24.20;99.90
7000;DHT22;3540;53.242;10.408;2023-08-24T10:15:43;24.40;99.90
7000;DHT22;3540;53.242;10.408;2023-08-24T10:18:13;24.20;99.90
7000;DHT22;3540;53.242;10.408;2023-08-24T10:20:40;24.40;99.90
7000;DHT22;3540;53.242;10.408;2023-08-24T10:23:08;24.60;99.90
7000;DHT22;3540;53.242;10.408;2023-08-24T10:25:34;24.60;99.90
7000;DHT22;3540;53.242;10.408;2023-08-24T10:28:02;24.80;99.90
7000;DHT22;3540;53.242;10.408;2023-08-24T10:30:28;24.30;99.90
7000;DHT22;3540;53.242;10.408;2023-08-24T10:32:57;24.30;99.90
7000;DHT22;3540;53.242;10.408;2023-08-24T10:35:23;24.60;99.90
7000;DHT22;3540;53.242;10.408;2023-08-24T10:37:52;24.90;99.90
7000;DHT22;3540;53.242;10.408;2023-08-24T10:40:32;25.20;99.90
7000;DHT22;3540;53.242;10.408;2023-08-24T10:42:58;25.00;99.90
7000;DHT22;3540;53.242;10.408;2023-08-24T10:45:24;25.10;99.90
7000;DHT22;3540;53.242;10.408;2023-08-24T10:47:53;25.30;99.90
7000;DHT22;3540;53.242;10.408;2023-08-24T10:50:19;25.50;99.90
7000;DHT22;3540;53.242;10.408;2023-08-24T10:52:45;25.60;99.90
7000;DHT22;3540;53.242;10.408;2023-08-24T10:55:27;25.60;99.90
7000;DHT22;3540;53.242;10.408;2023-08-24T10:57:57;25.50;99.90
7000;DHT22;3540;53.242;10.408;2023-08-24T11:00:27;25.60;99.90
7000;DHT22;3540;53.242;10.408;2023-08-24T11:02:54;25.60;99.90
7000;DHT22;3540;53.242;10.408;2023-08-24T11:05:30;25.80;99.90
7000;DHT22;3540;53.242;10.408;2023-08-24T11:08:04;25.90;99.90
7000;DHT22;3540;53.242;10.408;2023-08-24T11:20:45;26.00;99.90
7000;DHT22;3540;53.242;10.408;2023-08-24T11:23:10;26.30;99.90
7000;DHT22;3540;53.242;10.408;2023-08-24T11:25:36;26.40;99.90
7000;DHT22;3540;53.242;10.408;2023-08-24T11:28:05;25.90;99.90
7000;DHT22;3540;53.242;10.408;2023-08-24T11:30:32;25.30;99.90
7000;DHT22;3540;53.242;10.408;2023-08-24T11:32:58;24.40;99.90
7000;DHT22;3540;53.242;10.408;2023-08-24T11:35:25;24.80;99.90
7000;DHT22;3540;53.242;10.408;2023-08-24T11:37:54;25.30;99.90
7000;DHT22;3540;53.242;10.408;2023-08-24T11:40:20;25.90;99.90
7000;DHT22;3540;53.242;10.408;2023-08-24T11:42:53;26.40;99.90
7000;DHT22;3540;53.242;10.408;2023-08-24T11:45:19;26.70;99.90
7000;DHT22;3540;53.242;10.408;2023-08-24T11:47:45;26.90;99.90
7000;DHT22;3540;53.242;10.408;2023-08-24T11:50:11;26.80;99.90
7000;DHT22;3540;53.242;10.408;2023-08-24T11:52:41;26.80;99.90
7000;DHT22;3540;53.242;10.408;2023-08-24T11:55:07;27.00;99.90
7000;DHT22;3540;53.242;10.408;2023-08-24T11:57:34;27.10;99.90
7000;DHT22;3540;53.242;10.408;2023-08-24T12:00:01;26.80;99.90
7000;DHT22;3540;53.242;10.408;2023-08-24T12:02:27;26.60;99.90
7000;DHT22;3540;53.242;10.408;2023-08-24T12:04:53;26.60;99.90
7000;DHT22;3540;53.242;10.408;2023-08-24T12:07:20;26.40;99.90
7000;DHT22;3540;53.242;10.408;2023-08-24T12:09:46;26.60;99.90
7000;DHT22;3540;53.242;10.408;2023-08-24T12:12:13;25.90;99.90
7000;DHT22;3540;53.242;10.408;2023-08-24T12:14:42;26.00;99.90
7000;DHT22;3540;53.242;10.408;2023-08-24T12:17:09;26.40;99.90
7000;DHT22;3540;53.242;10.408;2023-08-24T12:19:35;26.70;99.90
7000;DHT22;3540;53.242;10.408;2023-08-24T12:22:00;26.70;99.90
7000;DHT22;3540;53.242;10.408;2023-08-24T12:24:26;26.80;99.90
7000;DHT22;3540;53.242;10.408;2023-08-24T12:26:58;27.10;99.90
7000;DHT22;3540;53.242;10.408;2023-08-24T12:29:24;27.60;99.90
7000;DHT22;3540;53.242;10.408;2023-08-24T12:31:50;28.10;99.90
7000;DHT22;3540;53.242;10.408;2023-08-24T12:34:16;28.40;99.90
7000;DHT22;3540;53.242;10.408;2023-08-24T12:36:42;28.40;99.90
7000;DHT22;3540;53.242;10.408;2023-08-24T12:39:10;28.50;99.90
7000;DHT22;3540;53.242;10.408;2023-08-24T12:41:38;28.10;99.90
7000;DHT22;3540;53.242;10.408;2023-08-24T12:44:04;27.40;99.90
7000;DHT22;3540;53.242;10.408;2023-08-24T12:46:36;27.40;99.90
7000;DHT22;3540;53.242;10.408;2023-08-24T12:49:03;25.80;99.90
7000;DHT22;3540;53.242;10.408;2023-08-24T12:51:29;25.70;99.90
7000;DHT22;3540;53.242;10.408;2023-08-24T12:53:54;26.40;99.90
7000;DHT22;3540;53.242;10.408;2023-08-24T12:56:20;27.00;99.90
7000;DHT22;3540;53.242;10.408;2023-08-24T12:58:45;27.50;99.90
7000;DHT22;3540;53.242;10.408;2023-08-24T13:01:11;27.50;99.90
7000;DHT22;3540;53.242;10.408;2023-08-24T13:03:37;27.40;99.90
7000;DHT22;3540;53.242;10.408;2023-08-24T13:06:05;27.50;99.90
7000;DHT22;3540;53.242;10.408;2023-08-24T13:08:31;27.70;99.90
7000;DHT22;3540;53.242;10.408;2023-08-24T13:10:56;27.70;99.90
7000;DHT22;3540;53.242;10.408;2023-08-24T13:13:22;27.40;99.90
7000;DHT22;3540;53.242;10.408;2023-08-24T13:15:49;27.10;99.90
7000;DHT22;3540;53.242;10.408;2023-08-24T13:18:16;27.30;99.90
7000;DHT22;3540;53.242;10.408;2023-08-24T13:20:41;27.30;99.90
7000;DHT22;3540;53.242;10.408;2023-08-24T13:23:07;27.30;99.90
7000;DHT22;3540;53.242;10.408;2023-08-24T13:25:33;27.40;99.90
7000;DHT22;3540;53.242;10.408;2023-08-24T13:27:58;27.30;99.90
7000;DHT22;3540;53.242;10.408;2023-08-24T13:30:24;27.20;99.90
7000;DHT22;3540;53.242;10.408;2023-08-24T13:32:50;27.40;99.90
7000;DHT22;3540;53.242;10.408;2023-08-24T13:35:15;27.50;99.90
7000;DHT22;3540;53.242;10.408;2023-08-24T13:37:41;27.60;99.90
7000;DHT22;3540;53.242;10.408;2023-08-24T13:40:07;27.60;99.90
7000;DHT22;3540;53.242;10.408;2023-08-24T13:42:33;27.50;99.90
7000;DHT22;3540;53.242;10.408;2023-08-24T13:44:59;27.30;99.90
7000;DHT22;3540;53.242;10.408;2023-08-24T13:47:24;27.40;99.90
7000;DHT22;3540;53.242;10.408;2023-08-24T13:49:50;27.40;99.90
7000;DHT22;3540;53.242;10.408;2023-08-24T13:52:16;27.50;99.90
7000;DHT22;3540;53.242;10.408;2023-08-24T13:54:44;27.90;99.90
7000;DHT22;3540;53.242;10.408;2023-08-24T13:57:10;28.00;99.90
7000;DHT22;3540;53.242;10.408;2023-08-24T13:59:35;28.20;99.90
7000;DHT22;3540;53.242;10.408;2023-08-24T14:02:01;28.20;99.90
7000;DHT22;3540;53.242;10.408;2023-08-24T14:04:27;27.90;99.90
7000;DHT22;3540;53.242;10.408;2023-08-24T14:06:53;28.30;99.90
7000;DHT22;3540;53.242;10.408;2023-08-24T14:09:18;28.30;99.90
7000;DHT22;3540;53.242;10.408;2023-08-24T14:11:44;28.20;99.90
7000;DHT22;3540;53.242;10.408;2023-08-24T14:14:10;28.40;99.90
7000;DHT22;3540;53.242;10.408;2023-08-24T14:16:35;28.50;99.90
7000;DHT22;3540;53.242;10.408;2023-08-24T14:19:01;28.10;99.90
7000;DHT22;3540;53.242;10.408;2023-08-24T14:21:27;28.40;99.90
7000;DHT22;3540;53.242;10.408;2023-08-24T14:23:52;28.70;99.90
7000;DHT22;3540;53.242;10.408;2023-08-24T14:26:18;28.90;99.90
7000;DHT22;3540;53.242;10.408;2023-08-24T14:28:54;28.70;99.90
7000;DHT22;3540;53.242;10.408;2023-08-24T14:31:21;28.60;99.90
7000;DHT22;3540;53.242;10.408;2023-08-24T14:33:47;27.90;99.90
7000;DHT22;3540;53.242;10.408;2023-08-24T14:36:12;27.30;99.90
7000;DHT22;3540;53.242;10.408;2023-08-24T14:38:39;26.70;99.90
7000;DHT22;3540;53.242;10.408;2023-08-24T14:41:09;26.40;99.90
7000;DHT22;3540;53.242;10.408;2023-08-24T14:43:34;26.70;99.90
7000;DHT22;3540;53.242;10.408;2023-08-24T14:46:00;27.10;99.90
7000;DHT22;3540;53.242;10.408;2023-08-24T14:48:26;27.30;99.90
7000;DHT22;3540;53.242;10.408;2023-08-24T14:50:51;27.50;99.90
7000;DHT22;3540;53.242;10.408;2023-08-24T14:53:17;27.60;99.90
7000;DHT22;3540;53.242;10.408;2023-08-24T14:55:43;27.60;99.90
7000;DHT22;3540;53.242;10.408;2023-08-24T14:58:08;27.40;99.90
7000;DHT22;3540;53.242;10.408;2023-08-24T15:00:34;27.00;99.90
7000;DHT22;3540;53.242;10.408;2023-08-24T15:03:00;27.10;99.90
7000;DHT22;3540;53.242;10.408;2023-08-24T15:05:26;26.80;99.90
7000;DHT22;3540;53.242;10.408;2023-08-24T15:07:52;26.90;99.90
7000;DHT22;3540;53.242;10.408;2023-08-24T15:10:18;27.00;99.90
7000;DHT22;3540;53.242;10.408;2023-08-24T15:12:45;27.10;99.90
7000;DHT22;3540;53.242;10.408;2023-08-24T15:15:11;26.90;99.90
7000;DHT22;3540;53.242;10.408;2023-08-24T15:17:37;27.00;99.90
7000;DHT22;3540;53.242;10.408;2023-08-24T15:20:03;26.90;99.90
7000;DHT22;3540;53.242;10.408;2023-08-24T15:22:30;26.70;99.90
7000;DHT22;3540;53.242;10.408;2023-08-24T15:24:58;26.50;99.90
7000;DHT22;3540;53.242;10.408;2023-08-24T15:27:24;26.60;99.90
7000;DHT22;3540;53.242;10.408;2023-08-24T15:29:50;26.60;99.90
7000;DHT22;3540;53.242;10.408;2023-08-24T15:32:19;26.70;99.90
7000;DHT22;3540;53.242;10.408;2023-08-24T15:34:44;26.60;99.90
7000;DHT22;3540;53.242;10.408;2023-08-24T15:37:10;26.70;99.90
7000;DHT22;3540;53.242;10.408;2023-08-24T15:39:37;26.70;99.90
7000;DHT22;3540;53.242;10.408;2023-08-24T15:42:06;26.70;99.90
7000;DHT22;3540;53.242;10.408;2023-08-24T15:44:33;26.70;99.90
7000;DHT22;3540;53.242;10.408;2023-08-24T15:47:00;26.60;99.90
7000;DHT22;3540;53.242;10.408;2023-08-24T15:49:26;26.50;99.90
7000;DHT22;3540;53.242;10.408;2023-08-24T15:51:52;26.20;99.90
7000;DHT22;3540;53.242;10.408;2023-08-24T15:54:18;26.10;99.90
7000;DHT22;3540;53.242;10.408;2023-08-24T15:56:44;26.00;99.90
7000;DHT22;3540;53.242;10.408;2023-08-24T15:59:17;26.00;99.90
7000;DHT22;3540;53.242;10.408;2023-08-24T16:01:44;26.00;99.90